Time;durP1;ratioP1;P1;durP2;ratioP2;P2;SDS_P1;SDS_P2;PMS_P1;PMS_P2;Temp;Humidity;BMP_temperature;BMP_pressure;BME280_temperature;BME280_humidity;BME280_pressure;Samples;Min_cycle;Max_cycle;Signal;HPM_P1;HPM_P2
2023/07/04 00:01:11;;;;;;;5.13;3.00;;;;;;;17.80;100.00;100056.22;4976835;28;20053;-67
2023/07/04 00:03:40;;;;;;;6.10;3.17;;;;;;;17.92;100.00;100064.22;4978753;28;20097;-68
2023/07/04 00:06:10;;;;;;;4.38;3.17;;;;;;;17.95;100.00;100066.63;4963169;28;20051;-68
2023/07/04 00:08:36;;;;;;;5.07;3.20;;;;;;;17.95;100.00;100061.28;4974756;28;20134;-68
2023/07/04 00:11:06;;;;;;;4.03;2.97;;;;;;;17.90;100.00;100052.78;4958649;28;20054;-67
2023/07/04 00:13:35;;;;;;;4.65;3.45;;;;;;;17.91;100.00;100065.22;4981255;28;20042;-68
2023/07/04 00:16:06;;;;;;;6.30;3.90;;;;;;;17.83;100.00;100066.69;4969832;28;20117;-66
2023/07/04 00:18:36;;;;;;;5.47;3.25;;;;;;;17.77;100.00;100059.16;4993940;28;20045;-68
2023/07/04 00:21:07;;;;;;;4.70;3.38;;;;;;;17.69;100.00;100064.28;4988867;28;20049;-68
2023/07/04 00:23:35;;;;;;;;;;;;;;;17.63;100.00;100064.72;4968607;28;20070;-67
2023/07/04 00:26:06;;;;;;;5.35;3.10;;;;;;;17.58;100.00;100064.28;4961216;28;19937;-67
2023/07/04 00:28:34;;;;;;;5.57;3.33;;;;;;;17.52;100.00;100064.75;4983038;28;20065;-67
2023/07/04 00:31:03;;;;;;;5.10;3.35;;;;;;;17.51;100.00;100071.09;4986959;28;20070;-67
2023/07/04 00:33:30;;;;;;;5.03;3.40;;;;;;;17.43;100.00;100060.16;4970974;28;20042;-68
2023/07/04 00:36:09;;;;;;;6.25;3.45;;;;;;;17.46;100.00;100068.81;4962520;28;20481;-66
2023/07/04 00:38:38;;;;;;;4.22;3.03;;;;;;;17.48;100.00;100065.97;4986422;28;20046;-67
2023/07/04 00:41:22;;;;;;;6.47;3.53;;;;;;;17.49;100.00;100070.38;4945265;28;20081;-68
2023/07/04 00:44:08;;;;;;;5.95;3.20;;;;;;;17.50;100.00;100077.41;4972985;28;20077;-68
2023/07/04 00:46:45;;;;;;;4.78;2.83;;;;;;;17.44;100.00;100078.78;4984861;28;20043;-68
2023/07/04 00:49:22;;;;;;;5.30;3.03;;;;;;;17.43;100.00;100073.56;4968307;28;20043;-67
2023/07/04 00:52:27;;;;;;;5.25;3.25;;;;;;;17.43;100.00;100076.22;4972785;28;20039;-68
2023/07/04 00:54:57;;;;;;;3.22;2.55;;;;;;;17.42;100.00;100072.69;4962392;28;20121;-68
2023/07/04 00:57:39;;;;;;;5.10;3.67;;;;;;;17.43;100.00;100082.44;4979245;28;20066;-67
2023/07/04 01:00:17;;;;;;;6.22;3.60;;;;;;;17.38;100.00;100081.94;4972273;28;20548;-69
2023/07/04 01:02:50;;;;;;;4.43;3.15;;;;;;;17.40;100.00;100082.69;4967697;28;20100;-69
2023/07/04 01:05:26;;;;;;;4.72;2.92;;;;;;;17.41;100.00;100079.03;4962211;28;20043;-68
2023/07/04 01:08:09;;;;;;;4.53;3.10;;;;;;;17.46;100.00;100090.22;4967569;28;20105;-68
2023/07/04 01:10:40;;;;;;;5.18;3.15;;;;;;;17.48;100.00;100082.88;4964237;28;20039;-69
2023/07/04 01:13:47;;;;;;;6.20;3.20;;;;;;;17.52;100.00;100086.19;4965526;28;20751;-68
2023/07/04 01:16:16;;;;;;;4.95;3.33;;;;;;;17.50;100.00;100088.13;4925422;29;20512;-68
2023/07/04 01:18:49;;;;;;;6.95;3.90;;;;;;;17.43;100.00;100089.63;4943151;28;20072;-68
2023/07/04 01:21:22;;;;;;;7.43;4.00;;;;;;;17.33;100.00;100083.28;4960107;28;20054;-69
2023/07/04 01:24:11;;;;;;;6.88;4.00;;;;;;;17.28;100.00;100091.69;4976997;28;20132;-68
2023/07/04 01:26:44;;;;;;;6.32;3.67;;;;;;;17.22;100.00;100094.00;4977004;28;20038;-67
2023/07/04 01:29:14;;;;;;;6.50;3.65;;;;;;;17.24;100.00;100097.41;4973983;28;20130;-67
2023/07/04 01:31:43;;;;;;;6.40;3.80;;;;;;;17.30;100.00;100092.41;4983764;28;20047;-68
2023/07/04 01:34:13;;;;;;;5.30;2.80;;;;;;;17.35;100.00;100094.72;4973582;28;20499;-68
2023/07/04 01:36:41;;;;;;;4.55;3.10;;;;;;;17.40;100.00;100105.91;4960882;28;20050;-68
2023/07/04 01:39:14;;;;;;;5.90;3.53;;;;;;;17.39;100.00;100094.34;4973617;28;20047;-69
2023/07/04 01:41:47;;;;;;;4.88;3.50;;;;;;;17.43;100.00;100105.69;4974203;28;20039;-69
2023/07/04 01:44:18;;;;;;;5.88;3.75;;;;;;;17.41;100.00;100110.28;4970291;28;20058;-68
2023/07/04 01:46:45;;;;;;;4.00;3.10;;;;;;;17.39;100.00;100099.72;4956221;28;20047;-69
2023/07/04 01:49:12;;;;;;;5.70;3.20;;;;;;;17.43;100.00;100111.03;4967418;28;20098;-69
2023/07/04 01:51:40;;;;;;;5.80;3.53;;;;;;;17.45;100.00;100114.44;4963378;28;20176;-68
2023/07/04 01:54:09;;;;;;;6.32;3.50;;;;;;;17.44;100.00;100110.06;4958784;28;20058;-67
2023/07/04 01:56:37;;;;;;;5.78;3.70;;;;;;;17.41;100.00;100118.31;4955208;28;20062;-68
2023/07/04 01:59:07;;;;;;;8.38;3.60;;;;;;;17.30;100.00;100107.63;4976606;28;20126;-68
2023/07/04 02:01:34;;;;;;;5.95;3.70;;;;;;;17.32;100.00;100122.56;4973686;28;20046;-68
2023/07/04 02:04:01;;;;;;;6.40;4.00;;;;;;;17.34;100.00;100120.63;4979334;28;20157;-67
2023/07/04 02:06:29;;;;;;;4.57;3.28;;;;;;;17.36;100.00;100128.53;4950244;28;20114;-68
2023/07/04 02:08:56;;;;;;;5.25;3.45;;;;;;;17.27;100.00;100115.91;4985303;28;20042;-68
2023/07/04 02:11:23;;;;;;;5.88;3.67;;;;;;;17.17;100.00;100110.41;4982507;28;20053;-68
2023/07/04 02:13:50;;;;;;;6.25;4.07;;;;;;;17.14;100.00;100114.19;4983182;28;20043;-68
2023/07/04 02:16:17;;;;;;;5.30;3.20;;;;;;;17.15;100.00;100123.94;4963517;28;20066;-68
2023/07/04 02:18:43;;;;;;;6.55;3.80;;;;;;;17.13;100.00;100120.50;4969332;28;20050;-68
2023/07/04 02:21:10;;;;;;;6.35;3.55;;;;;;;17.10;100.00;100123.41;4972684;28;20054;-68
2023/07/04 02:23:37;;;;;;;5.95;3.35;;;;;;;17.00;100.00;100127.75;4976631;28;20074;-68
2023/07/04 02:26:04;;;;;;;6.68;3.72;;;;;;;17.01;100.00;100126.78;4959668;28;20103;-66
2023/07/04 02:28:31;;;;;;;8.65;4.15;;;;;;;16.99;100.00;100128.75;4975603;28;20038;-68
2023/07/04 02:30:59;;;;;;;8.38;3.97;;;;;;;16.90;100.00;100133.97;4986304;28;20063;-68
2023/07/04 02:33:26;;;;;;;8.80;4.03;;;;;;;16.86;100.00;100138.69;4968189;28;20055;-68
2023/07/04 02:35:54;;;;;;;6.53;3.85;;;;;;;16.83;100.00;100145.16;4957157;28;20137;-67
2023/07/04 02:38:20;;;;;;;6.70;3.72;;;;;;;16.81;100.00;100135.53;4968308;28;20053;-68
2023/07/04 02:40:48;;;;;;;6.30;4.00;;;;;;;16.82;100.00;100132.75;4979395;28;20517;-69
2023/07/04 02:43:16;;;;;;;6.10;3.95;;;;;;;16.83;100.00;100141.63;4982053;28;20078;-67
2023/07/04 02:45:43;;;;;;;7.70;3.85;;;;;;;16.86;100.00;100138.69;4969089;28;20047;-67
2023/07/04 02:48:10;;;;;;;8.80;3.83;;;;;;;16.91;100.00;100130.31;4967800;28;20142;-68
2023/07/04 02:50:37;;;;;;;11.10;4.20;;;;;;;16.94;100.00;100138.09;4969598;28;20054;-70
2023/07/04 02:53:05;;;;;;;7.90;3.65;;;;;;;16.99;100.00;100131.44;4953516;28;20050;-68
2023/07/04 02:55:31;;;;;;;6.68;4.07;;;;;;;17.03;100.00;100135.56;4974918;28;20047;-69
2023/07/04 02:57:58;;;;;;;6.13;3.58;;;;;;;17.01;100.00;100121.44;4969778;28;20038;-67
2023/07/04 03:00:25;;;;;;;6.72;3.88;;;;;;;17.06;100.00;100126.44;4986271;28;20051;-69
2023/07/04 03:02:52;;;;;;;8.45;3.80;;;;;;;17.08;100.00;100130.72;4972679;28;20281;-68
2023/07/04 03:05:21;;;;;;;9.10;3.90;;;;;;;17.03;100.00;100135.56;4955829;28;20170;-68
2023/07/04 03:07:47;;;;;;;6.85;4.20;;;;;;;16.93;100.00;100131.91;4962192;28;20054;-69
2023/07/04 03:10:16;;;;;;;10.20;4.40;;;;;;;16.88;100.00;100147.44;4970214;28;20406;-69
2023/07/04 03:12:42;;;;;;;6.63;4.03;;;;;;;16.77;100.00;100137.59;4967589;28;20129;-69
2023/07/04 03:15:10;;;;;;;8.15;4.03;;;;;;;16.61;100.00;100123.66;4982143;28;20046;-68
2023/07/04 03:17:39;;;;;;;7.72;4.28;;;;;;;16.71;100.00;100154.09;4964263;28;20141;-68
2023/07/04 03:20:10;;;;;;;7.43;4.30;;;;;;;16.66;100.00;100144.72;4972910;28;20046;-68
2023/07/04 03:22:38;;;;;;;10.73;4.20;;;;;;;16.71;100.00;100142.53;4988124;28;20599;-69
2023/07/04 03:25:05;;;;;;;7.85;4.13;;;;;;;16.77;100.00;100150.09;4968273;28;20094;-70
2023/07/04 03:27:35;;;;;;;7.90;4.20;;;;;;;16.78;100.00;100147.31;4974211;28;20471;-67
2023/07/04 03:30:02;;;;;;;7.30;4.35;;;;;;;16.70;100.00;100151.53;4971585;28;20055;-66
2023/07/04 03:32:31;;;;;;;7.85;4.10;;;;;;;16.64;100.00;100141.31;4964817;28;20129;-68
2023/07/04 03:35:02;;;;;;;7.13;4.18;;;;;;;16.68;100.00;100137.44;4972820;28;20042;-67
2023/07/04 03:37:32;;;;;;;11.48;4.47;;;;;;;16.65;100.00;100148.38;4969366;28;20090;-68
2023/07/04 03:40:00;;;;;;;8.10;4.28;;;;;;;16.60;100.00;100153.16;4982531;28;20125;-68
2023/07/04 03:42:27;;;;;;;7.18;4.32;;;;;;;16.58;100.00;100147.94;4984386;28;20066;-67
2023/07/04 03:44:53;;;;;;;6.90;3.78;;;;;;;16.68;100.00;100154.34;4992474;28;20051;-68
2023/07/04 03:47:20;;;;;;;8.27;3.95;;;;;;;16.75;100.00;100149.34;4966587;28;20078;-67
2023/07/04 03:49:47;;;;;;;7.45;3.90;;;;;;;16.76;100.00;100153.75;4985830;28;20043;-68
2023/07/04 03:52:14;;;;;;;10.35;5.07;;;;;;;16.82;100.00;100156.81;4984210;28;20129;-66
2023/07/04 03:54:42;;;;;;;9.75;4.53;;;;;;;16.84;100.00;100151.34;4978015;28;20137;-68
2023/07/04 03:57:09;;;;;;;9.60;4.40;;;;;;;16.88;100.00;100162.63;4974722;28;20668;-68
2023/07/04 03:59:36;;;;;;;8.30;4.43;;;;;;;16.83;100.00;100155.00;4970816;28;20475;-68
2023/07/04 04:02:04;;;;;;;8.20;4.13;;;;;;;16.87;100.00;100161.78;4971696;28;20546;-70
2023/07/04 04:04:38;;;;;;;10.57;4.57;;;;;;;16.89;100.00;100162.53;4986781;28;20074;-68
2023/07/04 04:07:07;;;;;;;9.45;4.30;;;;;;;16.91;100.00;100162.41;4975103;28;20070;-68
2023/07/04 04:09:38;;;;;;;7.65;5.00;;;;;;;16.82;100.00;100158.63;4971289;28;20057;-68
2023/07/04 04:12:06;;;;;;;8.10;4.63;;;;;;;16.83;100.00;100171.03;4977533;28;20046;-68
2023/07/04 04:14:34;;;;;;;8.43;4.38;;;;;;;16.77;100.00;100167.00;4975784;28;20086;-68
2023/07/04 04:17:01;;;;;;;8.45;4.82;;;;;;;16.77;100.00;100168.81;4962113;28;20154;-68
2023/07/04 04:19:28;;;;;;;7.82;4.40;;;;;;;16.72;100.00;100174.50;4970151;28;20141;-69
2023/07/04 04:21:55;;;;;;;6.50;4.43;;;;;;;16.72;100.00;100182.53;4972626;28;20039;-68
2023/07/04 04:24:23;;;;;;;10.38;4.82;;;;;;;16.69;100.00;100189.91;4973694;28;20142;-67
2023/07/04 04:26:50;;;;;;;8.93;4.85;;;;;;;16.57;100.00;100178.31;4961314;28;20047;-68
2023/07/04 04:29:17;;;;;;;7.47;4.60;;;;;;;16.58;100.00;100182.69;4971866;28;20447;-69
2023/07/04 04:31:47;;;;;;;6.38;4.35;;;;;;;16.58;100.00;100180.00;4972240;28;20042;-67
2023/07/04 04:34:21;;;;;;;8.48;4.65;;;;;;;16.61;100.00;100185.13;4972487;28;20063;-68
2023/07/04 04:36:49;;;;;;;9.60;4.72;;;;;;;16.65;100.00;100188.47;4979358;28;20502;-67
2023/07/04 04:39:16;;;;;;;9.13;4.25;;;;;;;16.70;100.00;100192.47;4991095;28;20150;-68
2023/07/04 04:41:42;;;;;;;9.95;4.85;;;;;;;16.75;100.00;100201.03;4972855;28;20267;-67
2023/07/04 04:44:09;;;;;;;7.72;4.97;;;;;;;16.81;100.00;100207.75;4976648;28;20047;-69
2023/07/04 04:46:40;;;;;;;11.60;4.68;;;;;;;16.81;100.00;100194.38;4977257;28;20098;-69
2023/07/04 04:49:08;;;;;;;9.40;4.90;;;;;;;16.83;100.00;100208.47;4962746;28;20062;-69
2023/07/04 04:51:34;;;;;;;13.82;4.40;;;;;;;16.85;100.00;100203.84;4972438;28;20054;-69
2023/07/04 04:54:02;;;;;;;9.68;5.03;;;;;;;16.79;100.00;100210.53;4978802;28;20047;-68
2023/07/04 04:56:29;;;;;;;10.80;4.78;;;;;;;16.82;100.00;100212.97;4970409;28;20138;-68
2023/07/04 04:58:56;;;;;;;9.07;4.20;;;;;;;16.87;100.00;100217.94;4981625;28;20070;-68
2023/07/04 05:01:24;;;;;;;8.68;4.13;;;;;;;16.87;100.00;100215.28;4975906;28;20081;-70
2023/07/04 05:03:55;;;;;;;8.88;4.40;;;;;;;16.87;100.00;100212.59;4971648;28;20487;-68
2023/07/04 05:06:24;;;;;;;13.38;4.88;;;;;;;16.90;100.00;100224.88;4981832;28;20054;-68
2023/07/04 05:08:51;;;;;;;13.68;5.20;;;;;;;16.89;100.00;100218.69;4982011;28;20523;-69
2023/07/04 05:11:19;;;;;;;7.88;5.00;;;;;;;16.94;100.00;100224.56;4970919;28;20109;-68
2023/07/04 05:13:47;;;;;;;15.65;5.18;;;;;;;17.00;100.00;100215.22;4970052;28;20070;-68
2023/07/04 05:16:17;;;;;;;12.52;4.18;;;;;;;16.95;100.00;100220.06;4978085;28;20855;-67
2023/07/04 05:18:44;;;;;;;13.73;4.97;;;;;;;16.98;100.00;100220.69;4968032;28;20099;-68
2023/07/04 05:21:14;;;;;;;11.88;5.03;;;;;;;17.03;100.00;100220.31;4969685;28;20061;-69
2023/07/04 05:23:43;;;;;;;15.07;4.43;;;;;;;17.11;100.00;100221.44;4968543;28;20057;-67
2023/07/04 05:26:27;;;;;;;8.82;4.80;;;;;;;17.31;100.00;100225.28;4968213;28;20056;-68
2023/07/04 05:28:55;;;;;;;10.45;4.65;;;;;;;17.47;100.00;100220.38;4975472;28;20137;-68
2023/07/04 05:31:26;;;;;;;9.38;4.63;;;;;;;17.56;100.00;100218.84;4969654;28;20050;-69
2023/07/04 05:33:55;;;;;;;9.27;4.22;;;;;;;17.54;100.00;100220.78;4967140;28;20093;-68
2023/07/04 05:36:24;;;;;;;13.80;4.80;;;;;;;17.53;100.00;100219.94;4969024;28;20046;-69
2023/07/04 05:38:53;;;;;;;9.45;4.78;;;;;;;17.59;100.00;100217.75;4976845;28;20049;-67
2023/07/04 05:41:22;;;;;;;9.95;4.28;;;;;;;17.67;98.79;100221.53;4995872;28;20079;-68
2023/07/04 05:43:50;;;;;;;9.98;4.57;;;;;;;17.72;96.80;100218.50;4973993;28;20042;-67
2023/07/04 05:46:17;;;;;;;9.30;4.13;;;;;;;17.78;94.53;100218.03;4967516;28;20050;-68
2023/07/04 05:48:44;;;;;;;11.35;4.53;;;;;;;17.91;94.37;100208.03;4963135;28;20045;-68
2023/07/04 05:51:15;;;;;;;10.32;4.68;;;;;;;18.05;90.67;100217.66;4969520;28;20687;-69
2023/07/04 05:53:46;;;;;;;11.85;4.22;;;;;;;18.09;91.02;100216.44;4968090;28;20129;-69
2023/07/04 05:56:28;;;;;;;12.07;4.95;;;;;;;18.18;87.00;100212.97;4967326;28;20057;-67
2023/07/04 05:58:58;;;;;;;9.80;4.30;;;;;;;18.34;85.71;100226.84;4973847;28;20115;-70
2023/07/04 06:01:34;;;;;;;11.43;4.50;;;;;;;18.39;82.12;100229.16;4972493;28;20055;-67
2023/07/04 06:04:03;;;;;;;9.00;4.25;;;;;;;18.48;82.12;100231.06;4979601;28;20057;-68
2023/07/04 06:06:39;;;;;;;8.52;4.50;;;;;;;18.51;79.59;100241.53;4970187;28;20058;-69
2023/07/04 06:09:09;;;;;;;10.38;4.70;;;;;;;18.37;80.75;100237.31;4961330;28;20081;-69
2023/07/04 06:11:39;;;;;;;10.20;4.82;;;;;;;18.34;81.80;100242.94;4970169;28;20055;-68
2023/07/04 06:14:06;;;;;;;;;;;;;;;18.56;81.92;100242.88;4986978;28;20073;-69
2023/07/04 06:16:36;;;;;;;8.10;3.90;;;;;;;18.77;74.17;100237.56;4965443;28;20048;-67
2023/07/04 06:19:03;;;;;;;9.20;4.30;;;;;;;18.78;73.08;100247.34;4977398;28;20050;-70
2023/07/04 06:21:29;;;;;;;12.23;4.55;;;;;;;19.11;70.62;100249.00;4970125;28;20179;-70
2023/07/04 06:24:11;;;;;;;11.27;3.47;;;;;;;19.17;65.78;100243.13;4982859;28;20062;-68
2023/07/04 06:26:41;;;;;;;10.35;3.60;;;;;;;19.19;67.83;100246.56;4969591;28;20054;-68
2023/07/04 06:29:09;;;;;;;10.80;3.70;;;;;;;19.28;65.25;100245.75;4957333;28;20519;-67
2023/07/04 06:31:41;;;;;;;8.60;4.03;;;;;;;19.52;66.00;100248.19;4984260;28;20562;-69
2023/07/04 06:34:09;;;;;;;13.45;4.10;;;;;;;19.71;64.64;100252.81;4968546;28;20297;-69
2023/07/04 06:36:36;;;;;;;12.93;4.05;;;;;;;20.08;64.28;100249.59;4962809;28;20046;-66
2023/07/04 06:39:03;;;;;;;11.18;3.88;;;;;;;20.11;62.14;100250.16;4958946;28;20270;-67
2023/07/04 06:41:30;;;;;;;9.50;4.22;;;;;;;20.14;61.67;100249.03;4960114;28;20042;-68
2023/07/04 06:43:57;;;;;;;8.13;3.80;;;;;;;20.24;60.28;100249.91;4970047;28;20043;-67
2023/07/04 06:46:24;;;;;;;10.20;3.63;;;;;;;19.89;60.09;100259.25;4969364;28;20471;-68
2023/07/04 06:48:52;;;;;;;7.88;3.60;;;;;;;19.80;62.04;100256.53;4978419;28;20047;-68
2023/07/04 06:51:19;;;;;;;13.20;4.30;;;;;;;20.02;61.25;100250.13;4980375;28;20114;-67
2023/07/04 06:53:47;;;;;;;10.82;4.22;;;;;;;20.05;61.82;100255.22;4986436;28;20066;-69
2023/07/04 06:56:17;;;;;;;8.48;3.67;;;;;;;20.22;60.27;100262.66;4965956;28;20059;-67
2023/07/04 06:58:55;;;;;;;8.90;3.45;;;;;;;20.49;61.94;100248.59;4954551;28;20039;-69
2023/07/04 07:01:26;;;;;;;9.23;3.88;;;;;;;21.19;57.95;100255.56;4978789;28;20062;-70
2023/07/04 07:03:55;;;;;;;10.75;3.88;;;;;;;21.78;57.56;100258.00;4970025;28;20133;-67
2023/07/04 07:06:22;;;;;;;8.52;3.67;;;;;;;22.28;54.92;100263.09;4978946;28;20050;-66
2023/07/04 07:08:53;;;;;;;10.68;3.60;;;;;;;22.09;50.44;100269.41;4955882;28;20048;-66
2023/07/04 07:11:21;;;;;;;8.40;3.40;;;;;;;21.42;51.86;100269.59;4982968;28;20042;-69
2023/07/04 07:13:49;;;;;;;9.70;3.50;;;;;;;21.02;53.85;100270.59;4970635;28;20049;-67
2023/07/04 07:16:21;;;;;;;7.30;3.15;;;;;;;21.20;53.15;100274.31;4973913;28;20039;-70
2023/07/04 07:18:52;;;;;;;10.80;3.63;;;;;;;21.16;53.62;100272.84;4969301;28;20042;-70
2023/07/04 07:21:26;;;;;;;7.53;3.30;;;;;;;21.59;50.54;100264.31;4975699;28;20129;-69
2023/07/04 07:23:54;;;;;;;8.50;3.17;;;;;;;21.88;49.82;100272.28;4973933;28;20042;-68
2023/07/04 07:26:25;;;;;;;12.55;3.50;;;;;;;21.81;49.65;100276.59;4967658;28;20145;-65
2023/07/04 07:28:54;;;;;;;7.72;3.47;;;;;;;22.19;48.41;100274.78;4970881;28;20284;-65
2023/07/04 07:31:23;;;;;;;9.82;3.35;;;;;;;22.34;49.37;100274.13;4973103;28;20050;-65
2023/07/04 07:33:59;;;;;;;8.05;3.00;;;;;;;22.51;48.26;100275.16;4970647;28;20125;-65
2023/07/04 07:36:30;;;;;;;6.38;3.22;;;;;;;22.81;48.47;100278.56;4964637;28;20460;-66
2023/07/04 07:38:59;;;;;;;7.50;3.47;;;;;;;22.77;48.90;100286.09;4976450;28;20050;-66
2023/07/04 07:41:34;;;;;;;7.95;3.22;;;;;;;22.90;47.37;100274.94;4972634;28;20082;-67
2023/07/04 07:44:01;;;;;;;8.30;3.78;;;;;;;22.98;46.18;100275.03;4976588;28;20133;-68
2023/07/04 07:46:29;;;;;;;7.40;3.40;;;;;;;22.99;47.94;100274.84;4973602;28;20053;-64
2023/07/04 07:48:57;;;;;;;10.23;3.35;;;;;;;22.46;47.79;100282.03;4972691;28;20055;-66
2023/07/04 07:51:26;;;;;;;7.45;3.33;;;;;;;22.09;48.65;100280.19;4986022;28;20047;-65
2023/07/04 07:53:54;;;;;;;8.18;3.47;;;;;;;22.00;48.17;100284.66;4985613;28;20073;-64
2023/07/04 07:56:23;;;;;;;10.60;3.63;;;;;;;22.18;47.92;100278.47;4988243;28;20133;-64
2023/07/04 07:58:51;;;;;;;10.43;3.45;;;;;;;22.29;46.28;100276.44;4980286;28;20043;-66
2023/07/04 08:01:25;;;;;;;7.97;3.25;;;;;;;21.85;48.10;100278.00;4987258;28;20105;-64
2023/07/04 08:03:53;;;;;;;6.32;3.08;;;;;;;21.86;49.07;100268.06;4986312;28;20070;-66
2023/07/04 08:06:30;;;;;;;9.38;3.53;;;;;;;22.58;47.08;100275.41;4971322;28;20046;-62
2023/07/04 08:08:58;;;;;;;6.60;2.88;;;;;;;23.11;46.08;100285.44;4972023;28;20372;-65
2023/07/04 08:11:26;;;;;;;8.05;3.47;;;;;;;23.22;45.47;100288.72;4975478;28;20051;-66
2023/07/04 08:13:56;;;;;;;8.23;3.05;;;;;;;22.92;45.12;100295.38;4963932;28;20046;-66
2023/07/04 08:16:50;;;;;;;9.55;3.40;;;;;;;22.93;45.77;100282.72;4966870;28;20091;-64
2023/07/04 08:19:21;;;;;;;6.60;3.33;;;;;;;22.91;44.80;100282.03;4957525;28;20062;-65
2023/07/04 08:21:49;;;;;;;6.00;2.85;;;;;;;22.99;44.43;100285.66;4969284;28;20056;-65
2023/07/04 08:24:18;;;;;;;4.93;3.00;;;;;;;22.79;44.13;100292.22;4976335;28;20118;-66
2023/07/04 08:26:47;;;;;;;7.47;3.00;;;;;;;23.07;44.28;100268.69;4960245;28;20054;-65
2023/07/04 08:29:14;;;;;;;6.85;3.33;;;;;;;23.20;43.81;100276.38;4955584;28;20050;-68
2023/07/04 08:31:41;;;;;;;7.40;3.40;;;;;;;22.84;45.03;100276.38;4966528;28;20771;-66
2023/07/04 08:34:10;;;;;;;7.30;3.10;;;;;;;23.06;44.13;100269.69;4983511;28;20511;-65
2023/07/04 08:36:40;;;;;;;6.22;3.20;;;;;;;23.57;43.86;100274.34;4966568;28;20063;-66
2023/07/04 08:39:07;;;;;;;7.63;3.38;;;;;;;23.72;42.85;100270.06;4956219;28;20042;-66
2023/07/04 08:41:52;;;;;;;9.93;3.22;;;;;;;23.42;44.45;100265.09;4967283;28;20117;-66
2023/07/04 08:44:29;;;;;;;5.93;3.20;;;;;;;23.26;42.64;100270.38;4979159;28;20763;-64
2023/07/04 08:46:58;;;;;;;7.88;3.33;;;;;;;22.68;44.35;100274.31;4962719;28;20053;-67
2023/07/04 08:49:35;;;;;;;7.53;3.45;;;;;;;22.64;44.81;100269.41;4954067;28;20043;-67
2023/07/04 08:52:06;;;;;;;8.18;3.28;;;;;;;22.48;45.12;100272.78;4964954;28;20507;-65
2023/07/04 08:54:35;;;;;;;7.60;3.78;;;;;;;22.58;45.55;100283.50;4968151;28;20049;-66
2023/07/04 08:57:34;;;;;;;8.95;4.03;;;;;;;22.62;45.27;100276.81;4965617;28;20043;-66
2023/07/04 09:00:08;;;;;;;6.13;3.20;;;;;;;22.08;45.44;100283.91;4952924;28;20053;-65
2023/07/04 09:02:57;;;;;;;10.15;3.75;;;;;;;22.15;45.69;100282.31;4958974;28;20066;-65
2023/07/04 09:05:48;;;;;;;12.05;4.40;;;;;;;22.13;45.81;100275.38;4963035;28;20523;-66
2023/07/04 09:08:34;;;;;;;5.90;3.60;;;;;;;22.37;44.57;100273.81;4961030;28;20042;-65
2023/07/04 09:11:08;;;;;;;9.10;3.80;;;;;;;22.81;44.24;100276.72;4972679;28;20043;-66
2023/07/04 09:13:41;;;;;;;9.50;3.50;;;;;;;23.34;42.49;100275.81;4971494;28;20145;-67
2023/07/04 09:16:18;;;;;;;6.63;3.25;;;;;;;23.38;41.26;100282.63;4988729;28;20053;-66
2023/07/04 09:19:10;;;;;;;5.90;3.10;;;;;;;23.27;42.54;100277.47;4979275;28;20049;-64
2023/07/04 09:21:37;;;;;;;11.65;3.85;;;;;;;23.37;40.54;100267.41;4962514;28;20143;-67
2023/07/04 09:24:04;;;;;;;5.90;3.10;;;;;;;22.89;41.60;100275.94;4975898;28;20057;-66
2023/07/04 09:26:55;;;;;;;7.65;3.25;;;;;;;22.51;42.35;100269.75;4974479;28;20073;-66
2023/07/04 09:29:24;;;;;;;6.10;3.67;;;;;;;22.61;42.72;100275.09;4961060;28;20051;-65
2023/07/04 09:31:56;;;;;;;7.47;3.65;;;;;;;22.57;43.04;100279.09;4979253;28;20051;-67
2023/07/04 09:34:38;;;;;;;7.47;3.88;;;;;;;22.42;42.56;100275.22;4962746;28;20141;-61
2023/07/04 09:37:18;;;;;;;11.20;4.20;;;;;;;22.34;43.84;100274.13;4964977;28;20043;-62
2023/07/04 09:39:56;;;;;;;6.40;3.60;;;;;;;22.56;43.86;100267.47;4952470;28;20047;-63
2023/07/04 09:42:40;;;;;;;9.65;3.58;;;;;;;22.79;42.89;100265.22;4969616;28;20055;-64
2023/07/04 09:45:21;;;;;;;7.40;3.38;;;;;;;22.69;41.86;100278.72;4962018;28;20050;-63
2023/07/04 09:47:48;;;;;;;7.30;3.75;;;;;;;22.53;42.04;100265.06;4982108;28;20058;-63
2023/07/04 09:50:25;;;;;;;6.95;3.75;;;;;;;22.78;41.48;100263.50;4957245;28;20542;-61
2023/07/04 09:53:05;;;;;;;8.68;3.85;;;;;;;23.23;41.58;100260.72;4980738;28;20047;-64
2023/07/04 09:55:32;;;;;;;6.72;3.88;;;;;;;23.41;40.08;100266.09;4959628;28;20054;-62
2023/07/04 09:58:21;;;;;;;9.88;3.70;;;;;;;23.38;40.67;100267.25;4982561;28;20079;-64
2023/07/04 10:01:09;;;;;;;9.43;4.07;;;;;;;23.26;39.47;100262.25;4962850;28;20181;-64
2023/07/04 10:03:40;;;;;;;6.15;3.78;;;;;;;23.44;39.35;100261.22;4967149;28;20051;-65
2023/07/04 10:06:09;;;;;;;6.32;4.18;;;;;;;23.42;39.52;100255.13;4967714;28;20073;-65
2023/07/04 10:08:53;;;;;;;7.75;4.07;;;;;;;23.44;40.13;100257.69;4964551;28;20062;-64
2023/07/04 10:11:39;;;;;;;9.35;4.25;;;;;;;23.31;39.33;100251.81;4960706;28;20055;-64
2023/07/04 10:14:09;;;;;;;7.28;3.90;;;;;;;23.06;39.39;100253.47;4963799;28;20134;-64
2023/07/04 10:16:43;;;;;;;9.03;5.77;;;;;;;22.99;38.76;100247.84;4977598;28;20055;-64
2023/07/04 10:19:14;;;;;;;9.38;4.78;;;;;;;23.01;39.09;100255.78;4971060;28;20046;-63
2023/07/04 10:21:42;;;;;;;9.30;4.75;;;;;;;23.09;39.46;100242.38;4959975;28;20074;-62
2023/07/04 10:24:16;;;;;;;8.75;4.53;;;;;;;23.21;39.30;100235.72;4963951;28;20138;-64
2023/07/04 10:26:45;;;;;;;8.52;4.90;;;;;;;23.58;39.84;100249.03;4966790;28;20050;-64
2023/07/04 10:29:16;;;;;;;8.90;4.35;;;;;;;23.64;38.77;100242.09;4956320;28;20411;-64
2023/07/04 10:31:44;;;;;;;11.68;4.32;;;;;;;23.72;38.42;100224.09;4960725;28;20075;-63
2023/07/04 10:34:15;;;;;;;7.88;4.70;;;;;;;23.73;38.18;100231.19;4969169;28;20058;-64
2023/07/04 10:36:43;;;;;;;10.50;4.82;;;;;;;23.83;38.59;100241.03;4965457;28;20046;-63
2023/07/04 10:39:14;;;;;;;6.32;4.22;;;;;;;23.87;38.06;100223.50;4963233;28;20489;-64
2023/07/04 10:41:50;;;;;;;6.90;5.20;;;;;;;24.22;38.14;100228.72;4982863;28;20070;-65
2023/07/04 10:44:24;;;;;;;11.82;4.85;;;;;;;24.48;37.50;100224.09;4975257;28;20043;-65
2023/07/04 10:46:58;;;;;;;10.18;4.50;;;;;;;24.58;39.15;100213.09;4969318;28;20051;-64
2023/07/04 10:49:31;;;;;;;9.55;4.45;;;;;;;24.60;37.12;100221.06;4964813;28;20047;-65
2023/07/04 10:52:09;;;;;;;10.43;5.35;;;;;;;24.50;37.04;100217.66;4986474;28;20050;-66
2023/07/04 10:54:39;;;;;;;6.95;4.97;;;;;;;24.60;37.30;100218.34;4974572;28;20047;-64
2023/07/04 10:57:25;;;;;;;9.52;4.80;;;;;;;24.62;35.74;100224.44;4974183;28;20038;-63
2023/07/04 10:59:59;;;;;;;7.93;4.70;;;;;;;24.56;35.87;100225.09;4963174;28;20101;-66
2023/07/04 11:02:32;;;;;;;10.35;5.40;;;;;;;24.41;36.05;100216.78;4982220;28;20050;-65
2023/07/04 11:05:13;;;;;;;8.88;4.72;;;;;;;24.42;36.54;100211.22;4970979;28;21269;-64
2023/07/04 11:07:43;;;;;;;8.95;5.50;;;;;;;24.55;35.18;100209.91;4976483;28;20046;-61
2023/07/04 11:10:13;;;;;;;9.20;5.63;;;;;;;24.53;35.18;100218.19;4960361;28;20054;-65
2023/07/04 11:12:42;;;;;;;13.43;6.22;;;;;;;24.32;34.92;100215.06;4969593;28;20485;-65
2023/07/04 11:15:23;;;;;;;8.02;6.32;;;;;;;24.19;34.93;100220.94;4965324;28;20153;-65
2023/07/04 11:17:51;;;;;;;10.10;6.40;;;;;;;24.32;34.71;100196.13;4983016;28;20055;-63
2023/07/04 11:20:38;;;;;;;11.73;6.43;;;;;;;24.63;35.13;100207.19;4961977;28;20391;-64
2023/07/04 11:23:16;;;;;;;11.55;6.93;;;;;;;24.60;33.75;100207.53;4968145;28;20055;-64
2023/07/04 11:25:43;;;;;;;16.60;7.80;;;;;;;24.55;33.40;100215.31;4971809;28;20047;-63
2023/07/04 11:28:33;;;;;;;11.02;6.93;;;;;;;24.37;34.26;100186.53;4982017;28;20515;-62
2023/07/04 11:31:11;;;;;;;11.10;7.07;;;;;;;24.90;34.70;100203.31;4955092;28;20117;-64
2023/07/04 11:33:39;;;;;;;19.83;12.82;;;;;;;25.36;33.37;100199.94;4985606;28;20060;-65
2023/07/04 11:36:35;;;;;;;12.57;8.25;;;;;;;25.58;31.22;100202.97;4973489;28;20066;-64
2023/07/04 11:39:24;;;;;;;13.05;8.75;;;;;;;25.43;31.85;100205.53;4955301;28;20046;-65